Time;durP1;ratioP1;P1;durP2;ratioP2;P2;SDS_P1;SDS_P2;PMS_P1;PMS_P2;Temp;Humidity;BMP_temperature;BMP_pressure;BME280_temperature;BME280_humidity;BME280_pressure;Samples;Min_cycle;Max_cycle;Signal;HPM_P1;HPM_P2
2021/06/28 00:01:05;;;;;;;4.18;0.95;;;;;;;;;;5065225;28;20074;-38
2021/06/28 00:03:33;;;;;;;4.07;0.90;;;;;;;;;;5066775;28;20549;-34
2021/06/28 00:06:00;;;;;;;4.75;0.75;;;;;;;;;;5071271;28;20024;-40
2021/06/28 00:08:27;;;;;;;5.78;0.95;;;;;;;;;;5054495;28;20021;-37
2021/06/28 00:10:55;;;;;;;21.67;1.10;;;;;;;;;;5072434;28;20710;-32
2021/06/28 00:13:22;;;;;;;9.40;1.40;;;;;;;;;;5063211;28;20086;-34
2021/06/28 00:15:49;;;;;;;13.15;1.58;;;;;;;;;;5055876;28;20432;-37
2021/06/28 00:18:18;;;;;;;5.72;1.02;;;;;;;;;;5068862;28;20047;-38
2021/06/28 00:20:45;;;;;;;5.63;1.00;;;;;;;;;;5069060;28;20043;-32
2021/06/28 00:23:13;;;;;;;5.40;1.08;;;;;;;;;;5069603;28;20103;-35
2021/06/28 00:25:40;;;;;;;6.72;0.88;;;;;;;;;;5068370;28;20067;-34
2021/06/28 00:28:08;;;;;;;6.13;1.08;;;;;;;;;;5068101;28;20030;-35
2021/06/28 00:30:38;;;;;;;5.63;0.95;;;;;;;;;;5065818;28;20020;-32
2021/06/28 00:33:10;;;;;;;10.93;0.98;;;;;;;;;;5065210;28;20118;-33
2021/06/28 00:35:37;;;;;;;3.90;1.00;;;;;;;;;;5069287;28;20028;-32
2021/06/28 00:38:05;;;;;;;9.48;1.02;;;;;;;;;;5071914;28;20031;-33
2021/06/28 00:40:32;;;;;;;6.95;1.33;;;;;;;;;;5079414;28;20042;-32
2021/06/28 00:42:59;;;;;;;10.93;1.20;;;;;;;;;;5051858;28;20033;-33
2021/06/28 00:45:31;;;;;;;7.70;1.40;;;;;;;;;;5073220;28;20028;-34
2021/06/28 00:48:03;;;;;;;8.95;1.25;;;;;;;;;;5061987;28;20028;-33
2021/06/28 00:50:31;;;;;;;5.72;1.30;;;;;;;;;;5065324;28;20021;-33
2021/06/28 00:53:00;;;;;;;17.17;1.63;;;;;;;;;;5069737;28;20109;-37
2021/06/28 00:55:27;;;;;;;7.60;1.23;;;;;;;;;;5067247;28;20043;-36
2021/06/28 00:57:55;;;;;;;8.15;1.30;;;;;;;;;;5065259;28;20025;-33
2021/06/28 01:00:22;;;;;;;8.15;1.75;;;;;;;;;;5077869;28;20040;-34
2021/06/28 01:02:50;;;;;;;8.10;1.50;;;;;;;;;;5058063;28;20025;-39
2021/06/28 01:05:18;;;;;;;6.63;1.10;;;;;;;;;;5063102;28;20021;-33
2021/06/28 01:07:47;;;;;;;9.70;1.40;;;;;;;;;;5057886;28;20013;-34
2021/06/28 01:10:14;;;;;;;12.63;1.77;;;;;;;;;;5072776;28;20025;-33
2021/06/28 01:12:42;;;;;;;5.75;1.50;;;;;;;;;;5062488;28;20108;-33
2021/06/28 01:15:09;;;;;;;11.15;2.13;;;;;;;;;;5065666;28;20024;-33
2021/06/28 01:17:40;;;;;;;10.38;2.10;;;;;;;;;;5063986;28;20033;-34
2021/06/28 01:20:12;;;;;;;14.10;2.65;;;;;;;;;;5055460;28;20031;-34
2021/06/28 01:22:41;;;;;;;14.82;2.80;;;;;;;;;;5056535;28;20108;-35
2021/06/28 01:25:10;;;;;;;21.27;3.10;;;;;;;;;;5068521;28;20078;-31
2021/06/28 01:27:37;;;;;;;18.13;3.20;;;;;;;;;;5066177;28;20029;-36
2021/06/28 01:30:05;;;;;;;8.45;2.40;;;;;;;;;;5062806;28;20505;-37
2021/06/28 01:32:32;;;;;;;8.95;2.50;;;;;;;;;;5066145;28;20048;-37
2021/06/28 01:34:59;;;;;;;17.70;2.72;;;;;;;;;;5073818;28;20048;-40
2021/06/28 01:37:28;;;;;;;10.13;2.17;;;;;;;;;;5084218;28;20063;-35
2021/06/28 01:39:57;;;;;;;11.82;2.65;;;;;;;;;;5074189;28;20461;-38
2021/06/28 01:42:24;;;;;;;12.20;2.20;;;;;;;;;;5074775;28;20049;-37
2021/06/28 01:44:51;;;;;;;7.25;1.92;;;;;;;;;;5061234;28;20086;-34
2021/06/28 01:47:19;;;;;;;8.13;1.88;;;;;;;;;;5065678;28;20505;-38
2021/06/28 01:49:46;;;;;;;8.52;1.90;;;;;;;;;;5060492;28;20036;-34
2021/06/28 01:52:14;;;;;;;8.35;1.95;;;;;;;;;;5068786;28;20028;-36
2021/06/28 01:54:41;;;;;;;9.80;1.77;;;;;;;;;;5070840;28;20480;-38
2021/06/28 01:57:08;;;;;;;7.57;1.90;;;;;;;;;;5071548;28;20029;-34
2021/06/28 01:59:37;;;;;;;11.20;1.88;;;;;;;;;;5059356;28;20115;-36
2021/06/28 02:02:05;;;;;;;9.57;1.90;;;;;;;;;;5067755;28;20092;-33
2021/06/28 02:04:33;;;;;;;9.70;1.80;;;;;;;;;;5071020;28;20032;-37
2021/06/28 02:07:00;;;;;;;7.47;1.77;;;;;;;;;;5062848;28;20085;-37
2021/06/28 02:09:32;;;;;;;9.38;1.55;;;;;;;;;;5071071;28;20104;-36
2021/06/28 02:11:59;;;;;;;8.13;1.65;;;;;;;;;;5068553;28;20025;-37
2021/06/28 02:14:27;;;;;;;7.97;1.42;;;;;;;;;;5070584;28;20024;-34
2021/06/28 02:16:54;;;;;;;10.02;1.40;;;;;;;;;;5067442;28;20021;-36
2021/06/28 02:19:21;;;;;;;11.80;1.50;;;;;;;;;;5070773;28;20037;-34
2021/06/28 02:21:49;;;;;;;8.00;1.60;;;;;;;;;;5056780;28;20020;-35
2021/06/28 02:24:16;;;;;;;8.50;1.63;;;;;;;;;;5070154;28;20021;-44
2021/06/28 02:26:44;;;;;;;9.93;1.25;;;;;;;;;;5070284;28;20108;-33
2021/06/28 02:29:11;;;;;;;6.80;1.20;;;;;;;;;;5066897;28;20435;-36
2021/06/28 02:31:39;;;;;;;5.75;1.20;;;;;;;;;;5068182;28;20039;-40
2021/06/28 02:34:06;;;;;;;5.28;1.08;;;;;;;;;;5066326;28;20492;-37
2021/06/28 02:36:33;;;;;;;5.68;1.10;;;;;;;;;;5057113;28;20063;-36
2021/06/28 02:39:01;;;;;;;4.00;1.10;;;;;;;;;;5054667;28;20041;-35
2021/06/28 02:41:28;;;;;;;7.35;1.10;;;;;;;;;;5049361;28;20537;-38
2021/06/28 02:43:56;;;;;;;7.72;1.23;;;;;;;;;;5049301;28;20021;-37
2021/06/28 02:46:23;;;;;;;5.43;1.13;;;;;;;;;;5051470;28;20021;-33
2021/06/28 02:48:50;;;;;;;5.20;1.15;;;;;;;;;;5050956;28;20021;-38
2021/06/28 02:51:18;;;;;;;5.88;1.30;;;;;;;;;;5051423;28;20105;-36
2021/06/28 02:53:45;;;;;;;5.85;0.88;;;;;;;;;;5050973;28;20040;-37
2021/06/28 02:56:12;;;;;;;4.97;0.90;;;;;;;;;;5051004;28;20061;-32
2021/06/28 02:58:53;;;;;;;6.35;1.13;;;;;;;;;;5051527;28;20032;-37
2021/06/28 03:01:22;;;;;;;8.20;1.50;;;;;;;;;;5051138;28;20555;-38
2021/06/28 03:03:49;;;;;;;4.28;0.90;;;;;;;;;;5051302;28;20702;-37
2021/06/28 03:06:17;;;;;;;8.93;1.33;;;;;;;;;;5051013;28;20385;-38
2021/06/28 03:08:45;;;;;;;2.85;0.80;;;;;;;;;;5051639;28;20064;-37
2021/06/28 03:11:13;;;;;;;3.78;0.95;;;;;;;;;;5050650;28;20479;-35
2021/06/28 03:13:40;;;;;;;6.50;0.80;;;;;;;;;;5051374;28;20071;-35
2021/06/28 03:16:07;;;;;;;3.08;1.13;;;;;;;;;;5050953;28;20059;-37
2021/06/28 03:18:34;;;;;;;4.03;0.70;;;;;;;;;;5051199;28;20029;-37
2021/06/28 03:21:02;;;;;;;6.53;1.20;;;;;;;;;;5050561;28;20021;-37
2021/06/28 03:23:29;;;;;;;2.95;0.90;;;;;;;;;;5051210;28;20527;-35
2021/06/28 03:25:56;;;;;;;3.33;0.80;;;;;;;;;;5050836;28;20036;-32
2021/06/28 03:28:23;;;;;;;3.28;1.00;;;;;;;;;;5051235;28;20025;-32
2021/06/28 03:30:51;;;;;;;3.03;0.93;;;;;;;;;;5051018;28;20476;-38
2021/06/28 03:33:18;;;;;;;4.03;1.20;;;;;;;;;;5059714;28;20044;-35
2021/06/28 03:35:45;;;;;;;1.25;0.77;;;;;;;;;;5071018;28;20025;-34
2021/06/28 03:38:12;;;;;;;5.63;1.05;;;;;;;;;;5070193;28;20356;-35
2021/06/28 03:40:39;;;;;;;5.35;1.20;;;;;;;;;;5070541;28;20029;-35
2021/06/28 03:43:08;;;;;;;2.58;0.95;;;;;;;;;;5067454;28;20023;-37
2021/06/28 03:45:35;;;;;;;3.47;1.30;;;;;;;;;;5069964;28;20070;-35
2021/06/28 03:48:02;;;;;;;4.32;1.23;;;;;;;;;;5069164;28;20382;-36
2021/06/28 03:50:30;;;;;;;3.55;1.20;;;;;;;;;;5070013;28;20026;-37
2021/06/28 03:52:57;;;;;;;4.10;1.20;;;;;;;;;;5070610;28;20024;-36
2021/06/28 03:55:24;;;;;;;5.28;1.30;;;;;;;;;;5073875;28;20130;-32
2021/06/28 03:57:51;;;;;;;2.95;1.10;;;;;;;;;;5073194;28;20016;-37
2021/06/28 04:00:19;;;;;;;5.32;1.30;;;;;;;;;;5073755;28;20501;-37
2021/06/28 04:02:46;;;;;;;4.32;1.08;;;;;;;;;;5072423;28;20020;-38
2021/06/28 04:05:17;;;;;;;3.42;1.10;;;;;;;;;;5055357;28;20182;-34
2021/06/28 04:07:44;;;;;;;2.88;1.05;;;;;;;;;;5074504;28;20012;-36
2021/06/28 04:10:11;;;;;;;3.63;1.10;;;;;;;;;;5073894;28;20031;-37
2021/06/28 04:12:38;;;;;;;3.00;1.20;;;;;;;;;;5074112;28;20104;-37
2021/06/28 04:15:09;;;;;;;1.60;0.80;;;;;;;;;;5073284;28;20507;-38
2021/06/28 04:17:36;;;;;;;5.85;1.17;;;;;;;;;;5074381;28;20416;-37
2021/06/28 04:20:03;;;;;;;3.03;1.00;;;;;;;;;;5073762;28;20107;-40
2021/06/28 04:22:30;;;;;;;2.58;0.95;;;;;;;;;;5074156;28;20017;-37
2021/06/28 04:24:57;;;;;;;2.17;0.85;;;;;;;;;;5073186;28;20052;-37
2021/06/28 04:27:24;;;;;;;3.03;0.80;;;;;;;;;;5074232;28;20013;-37
2021/06/28 04:29:51;;;;;;;2.58;0.85;;;;;;;;;;5073224;28;20031;-37
2021/06/28 04:32:19;;;;;;;4.85;1.00;;;;;;;;;;5073484;28;20031;-35
2021/06/28 04:34:46;;;;;;;1.90;0.60;;;;;;;;;;5073341;28;20032;-35
2021/06/28 04:37:13;;;;;;;2.08;0.75;;;;;;;;;;5073638;28;20042;-37
2021/06/28 04:39:41;;;;;;;1.75;0.70;;;;;;;;;;5073714;28;20028;-37
2021/06/28 04:42:09;;;;;;;2.75;0.80;;;;;;;;;;5073438;28;20392;-38
2021/06/28 04:44:36;;;;;;;2.22;0.90;;;;;;;;;;5073601;28;20029;-35
2021/06/28 04:47:03;;;;;;;2.70;0.70;;;;;;;;;;5073080;28;20050;-36
2021/06/28 04:49:30;;;;;;;2.55;0.80;;;;;;;;;;5073903;28;20025;-35
2021/06/28 04:51:57;;;;;;;2.40;0.85;;;;;;;;;;5073083;28;20427;-36
2021/06/28 04:54:24;;;;;;;1.67;0.60;;;;;;;;;;5073386;28;20353;-37
2021/06/28 04:56:51;;;;;;;1.58;0.77;;;;;;;;;;5072975;28;20020;-38
2021/06/28 04:59:19;;;;;;;5.20;0.80;;;;;;;;;;5073063;28;20514;-37
2021/06/28 05:01:46;;;;;;;1.42;0.63;;;;;;;;;;5073025;28;20017;-38
2021/06/28 05:04:13;;;;;;;1.17;0.75;;;;;;;;;;5071971;28;20020;-38
2021/06/28 05:06:40;;;;;;;2.08;0.85;;;;;;;;;;5072677;28;20028;-34
2021/06/28 05:09:09;;;;;;;1.20;0.65;;;;;;;;;;5073022;28;20016;-37
2021/06/28 05:11:37;;;;;;;2.80;0.82;;;;;;;;;;5072905;28;20017;-34
2021/06/28 05:14:04;;;;;;;2.95;0.77;;;;;;;;;;5072896;28;20065;-36
2021/06/28 05:16:32;;;;;;;1.60;0.60;;;;;;;;;;5072977;28;20024;-35
2021/06/28 05:18:59;;;;;;;2.15;0.60;;;;;;;;;;5072383;28;20025;-38
2021/06/28 05:21:26;;;;;;;3.53;0.80;;;;;;;;;;5073270;28;20032;-36
2021/06/28 05:23:53;;;;;;;2.05;0.80;;;;;;;;;;5072438;28;20020;-36
2021/06/28 05:26:20;;;;;;;1.30;0.50;;;;;;;;;;5072548;28;20035;-37
2021/06/28 05:28:47;;;;;;;3.50;0.80;;;;;;;;;;5072465;28;20077;-37
2021/06/28 05:31:14;;;;;;;1.23;0.70;;;;;;;;;;5072499;28;20036;-35
2021/06/28 05:33:41;;;;;;;2.17;0.50;;;;;;;;;;5071894;28;20044;-36
2021/06/28 05:36:08;;;;;;;0.70;0.43;;;;;;;;;;5072540;28;20090;-35
2021/06/28 05:38:36;;;;;;;1.75;0.60;;;;;;;;;;5072093;28;20102;-38
2021/06/28 05:41:03;;;;;;;2.13;0.50;;;;;;;;;;5072348;28;20033;-36
2021/06/28 05:43:30;;;;;;;1.95;0.73;;;;;;;;;;5072323;28;20050;-37
2021/06/28 05:45:57;;;;;;;1.25;0.50;;;;;;;;;;5072334;28;20488;-35
2021/06/28 05:48:24;;;;;;;1.08;0.70;;;;;;;;;;5072043;28;20395;-36
2021/06/28 05:50:51;;;;;;;1.05;0.50;;;;;;;;;;5072451;28;20469;-34
2021/06/28 05:53:18;;;;;;;1.98;0.60;;;;;;;;;;5071792;28;20094;-33
2021/06/28 05:55:45;;;;;;;3.22;0.50;;;;;;;;;;5071972;28;20100;-36
2021/06/28 05:58:13;;;;;;;1.40;0.60;;;;;;;;;;5072295;28;20033;-33
2021/06/28 06:00:40;;;;;;;2.05;0.60;;;;;;;;;;5071539;28;20505;-38
2021/06/28 06:03:08;;;;;;;0.88;0.50;;;;;;;;;;5072009;28;20032;-34
2021/06/28 06:05:35;;;;;;;3.08;0.93;;;;;;;;;;5053744;28;20048;-38
2021/06/28 06:08:02;;;;;;;1.42;0.68;;;;;;;;;;5072310;28;20016;-37
2021/06/28 06:10:29;;;;;;;1.08;0.40;;;;;;;;;;5071446;28;20032;-37
2021/06/28 06:12:56;;;;;;;1.45;0.57;;;;;;;;;;5072057;28;20052;-34
2021/06/28 06:15:23;;;;;;;1.77;0.50;;;;;;;;;;5071031;28;20460;-35
2021/06/28 06:17:50;;;;;;;0.75;0.40;;;;;;;;;;5071741;28;20028;-36
2021/06/28 06:20:17;;;;;;;0.68;0.30;;;;;;;;;;5071552;28;20043;-37
2021/06/28 06:22:44;;;;;;;0.88;0.32;;;;;;;;;;5071734;28;20028;-35
2021/06/28 06:25:11;;;;;;;1.02;0.50;;;;;;;;;;5070851;28;20092;-36
2021/06/28 06:27:38;;;;;;;1.40;0.43;;;;;;;;;;5071947;28;20380;-36
2021/06/28 06:30:06;;;;;;;0.88;0.40;;;;;;;;;;5071246;28;20487;-37
2021/06/28 06:32:33;;;;;;;2.42;0.57;;;;;;;;;;5071292;28;20041;-37
2021/06/28 06:35:00;;;;;;;1.98;0.50;;;;;;;;;;5071903;28;20435;-37
2021/06/28 06:37:27;;;;;;;1.20;0.40;;;;;;;;;;5071106;28;20016;-36
2021/06/28 06:39:54;;;;;;;1.38;0.45;;;;;;;;;;5071425;28;20041;-36
2021/06/28 06:42:21;;;;;;;0.98;0.40;;;;;;;;;;5071286;28;20032;-37
2021/06/28 06:44:48;;;;;;;0.40;0.30;;;;;;;;;;5071697;28;20036;-34
2021/06/28 06:47:15;;;;;;;3.25;0.50;;;;;;;;;;5070772;28;20093;-37
2021/06/28 06:49:42;;;;;;;1.48;0.40;;;;;;;;;;5071694;28;20016;-34
2021/06/28 06:52:11;;;;;;;0.80;0.40;;;;;;;;;;5071159;28;20365;-36
2021/06/28 06:54:39;;;;;;;1.48;0.60;;;;;;;;;;5071273;28;20541;-36
2021/06/28 06:57:07;;;;;;;0.47;0.40;;;;;;;;;;5070484;28;20029;-37
2021/06/28 06:59:34;;;;;;;1.65;0.40;;;;;;;;;;5071443;28;20067;-36
2021/06/28 07:02:01;;;;;;;1.30;0.50;;;;;;;;;;5071049;28;20017;-35
2021/06/28 07:04:28;;;;;;;1.60;0.50;;;;;;;;;;5071375;28;20103;-38
2021/06/28 07:06:55;;;;;;;2.53;0.40;;;;;;;;;;5070687;28;20190;-35
2021/06/28 07:09:22;;;;;;;0.90;0.40;;;;;;;;;;5053191;28;20043;-35
2021/06/28 07:11:49;;;;;;;3.58;0.60;;;;;;;;;;5071000;28;20471;-35
2021/06/28 07:14:16;;;;;;;0.95;0.40;;;;;;;;;;5071502;28;20055;-37
2021/06/28 07:16:43;;;;;;;0.80;0.35;;;;;;;;;;5070881;28;20024;-36
2021/06/28 07:19:10;;;;;;;0.90;0.30;;;;;;;;;;5070637;28;20507;-36
2021/06/28 07:21:37;;;;;;;1.50;0.50;;;;;;;;;;5071590;28;20472;-34
2021/06/28 07:24:06;;;;;;;0.73;0.43;;;;;;;;;;5070935;28;20028;-34
2021/06/28 07:26:34;;;;;;;1.23;0.32;;;;;;;;;;5071111;28;20028;-36
2021/06/28 07:29:01;;;;;;;1.35;0.50;;;;;;;;;;5073690;28;20108;-34
2021/06/28 07:31:28;;;;;;;1.80;0.63;;;;;;;;;;5074832;28;20059;-34
2021/06/28 07:33:55;;;;;;;0.85;0.38;;;;;;;;;;5074459;28;20072;-36
2021/06/28 07:36:22;;;;;;;1.02;0.40;;;;;;;;;;5074957;28;20403;-37
2021/06/28 07:38:49;;;;;;;0.60;0.30;;;;;;;;;;5074255;28;20063;-37
2021/06/28 07:41:16;;;;;;;1.73;0.40;;;;;;;;;;5074506;28;20091;-37
2021/06/28 07:43:43;;;;;;;1.30;0.50;;;;;;;;;;5074638;28;20017;-34
2021/06/28 07:46:11;;;;;;;1.42;0.50;;;;;;;;;;5074773;28;20021;-34
2021/06/28 07:48:38;;;;;;;0.80;0.38;;;;;;;;;;5074183;28;20035;-37
2021/06/28 07:51:05;;;;;;;1.23;0.55;;;;;;;;;;5074667;28;20021;-33
2021/06/28 07:53:32;;;;;;;1.45;0.40;;;;;;;;;;5074526;28;20016;-35
2021/06/28 07:56:14;;;;;;;1.23;0.50;;;;;;;;;;5074156;28;20028;-36
2021/06/28 07:58:42;;;;;;;1.02;0.40;;;;;;;;;;5074359;28;20611;-37
2021/06/28 08:01:10;;;;;;;0.85;0.40;;;;;;;;;;5074054;28;20037;-37
2021/06/28 08:03:43;;;;;;;0.57;0.35;;;;;;;;;;5074522;28;20017;-34
2021/06/28 08:06:11;;;;;;;1.10;0.32;;;;;;;;;;5073611;28;20029;-34
2021/06/28 08:08:38;;;;;;;2.35;0.30;;;;;;;;;;5074480;28;20067;-35
2021/06/28 08:11:07;;;;;;;1.45;0.40;;;;;;;;;;5073814;28;20526;-36
2021/06/28 08:13:34;;;;;;;1.58;0.50;;;;;;;;;;5074278;28;20396;-34
2021/06/28 08:16:02;;;;;;;1.13;0.50;;;;;;;;;;5073795;28;20472;-33
2021/06/28 08:18:29;;;;;;;1.15;0.40;;;;;;;;;;5074025;28;20421;-35
2021/06/28 08:20:56;;;;;;;1.05;0.32;;;;;;;;;;5073360;28;20411;-37
2021/06/28 08:23:24;;;;;;;0.73;0.30;;;;;;;;;;5074062;28;20008;-37
2021/06/28 08:25:51;;;;;;;0.93;0.40;;;;;;;;;;5073712;28;20402;-38
2021/06/28 08:28:17;;;;;;;1.05;0.38;;;;;;;;;;5073953;28;20091;-37
2021/06/28 08:30:44;;;;;;;2.95;0.30;;;;;;;;;;5073407;28;20036;-39
2021/06/28 08:33:12;;;;;;;0.85;0.30;;;;;;;;;;5073608;28;20041;-36
2021/06/28 08:35:40;;;;;;;1.50;0.50;;;;;;;;;;5073427;28;20025;-35
2021/06/28 08:38:08;;;;;;;1.33;0.40;;;;;;;;;;5073552;28;20042;-37
2021/06/28 08:40:36;;;;;;;0.65;0.40;;;;;;;;;;5073554;28;20033;-38
2021/06/28 08:43:04;;;;;;;0.50;0.30;;;;;;;;;;5072913;28;20444;-35
2021/06/28 08:45:34;;;;;;;2.22;0.30;;;;;;;;;;5073718;28;20028;-37
2021/06/28 08:48:02;;;;;;;2.13;0.43;;;;;;;;;;5072955;28;20028;-37
2021/06/28 08:50:29;;;;;;;2.47;0.40;;;;;;;;;;5073454;28;20028;-37
2021/06/28 08:52:56;;;;;;;1.45;0.40;;;;;;;;;;5093202;28;20403;-37
2021/06/28 08:55:23;;;;;;;0.65;0.30;;;;;;;;;;5093848;28;20028;-36
2021/06/28 08:57:50;;;;;;;1.02;0.50;;;;;;;;;;5093237;28;20124;-34
2021/06/28 09:00:17;;;;;;;1.35;0.50;;;;;;;;;;5093512;28;20074;-34
2021/06/28 09:02:46;;;;;;;1.67;0.40;;;;;;;;;;5093027;28;20460;-37
2021/06/28 09:05:13;;;;;;;0.45;0.30;;;;;;;;;;5093507;28;20028;-35
2021/06/28 09:07:40;;;;;;;1.55;0.40;;;;;;;;;;5092928;28;20027;-37
2021/06/28 09:10:08;;;;;;;1.00;0.30;;;;;;;;;;5093484;28;20111;-37
2021/06/28 09:12:49;;;;;;;1.48;0.40;;;;;;;;;;5093268;28;20024;-34
2021/06/28 09:15:32;;;;;;;1.30;0.60;;;;;;;;;;5093316;28;20028;-36
2021/06/28 09:18:14;;;;;;;1.25;0.40;;;;;;;;;;5092650;28;20024;-37
2021/06/28 09:20:42;;;;;;;0.90;0.50;;;;;;;;;;5093182;28;20032;-36
2021/06/28 09:23:20;;;;;;;1.17;0.50;;;;;;;;;;5093121;28;20032;-33
2021/06/28 09:25:47;;;;;;;0.95;0.40;;;;;;;;;;5093007;28;20024;-36
2021/06/28 09:28:14;;;;;;;1.65;0.40;;;;;;;;;;5093051;28;20051;-34
2021/06/28 09:30:50;;;;;;;1.02;0.40;;;;;;;;;;5092617;28;20073;-35
2021/06/28 09:33:21;;;;;;;1.25;0.40;;;;;;;;;;5092764;28;20672;-35
2021/06/28 09:35:48;;;;;;;0.60;0.30;;;;;;;;;;5092358;28;20028;-38
2021/06/28 09:38:33;;;;;;;0.38;0.28;;;;;;;;;;5092981;28;20024;-34
2021/06/28 09:41:20;;;;;;;0.60;0.30;;;;;;;;;;5092524;28;20065;-37
2021/06/28 09:43:47;;;;;;;1.42;0.32;;;;;;;;;;5085674;28;20107;-37
2021/06/28 09:46:19;;;;;;;1.83;0.50;;;;;;;;;;5092353;28;20023;-36
2021/06/28 09:48:49;;;;;;;0.68;0.30;;;;;;;;;;5092712;28;20479;-37
2021/06/28 09:51:25;;;;;;;1.10;0.40;;;;;;;;;;5091513;28;20055;-37
2021/06/28 09:53:53;;;;;;;1.30;0.30;;;;;;;;;;5092768;28;20364;-36
2021/06/28 09:56:34;;;;;;;0.47;0.30;;;;;;;;;;5092145;28;20024;-36
2021/06/28 09:59:19;;;;;;;0.82;0.30;;;;;;;;;;5092188;28;20055;-36
2021/06/28 10:01:47;;;;;;;0.32;0.30;;;;;;;;;;5091909;28;20039;-37
2021/06/28 10:04:38;;;;;;;1.73;0.20;;;;;;;;;;5092352;28;20145;-32
2021/06/28 10:07:17;;;;;;;0.98;0.25;;;;;;;;;;5091584;28;20028;-37
2021/06/28 10:09:44;;;;;;;0.30;0.20;;;;;;;;;;5092123;28;20016;-35
2021/06/28 10:12:29;;;;;;;1.17;0.40;;;;;;;;;;5091895;28;20061;-37
2021/06/28 10:14:56;;;;;;;0.95;0.30;;;;;;;;;;5092469;28;20020;-36
2021/06/28 10:17:24;;;;;;;2.90;0.30;;;;;;;;;;5091806;28;20507;-33
2021/06/28 10:19:51;;;;;;;0.82;0.40;;;;;;;;;;5091833;28;20474;-40
2021/06/28 10:22:18;;;;;;;1.75;0.35;;;;;;;;;;5091864;28;20515;-38
2021/06/28 10:24:45;;;;;;;5.20;0.40;;;;;;;;;;5091802;28;20415;-36
2021/06/28 10:27:13;;;;;;;1.42;0.45;;;;;;;;;;5073262;28;20016;-36
2021/06/28 10:29:40;;;;;;;0.77;0.40;;;;;;;;;;5091838;28;20062;-35
2021/06/28 10:32:08;;;;;;;1.30;0.40;;;;;;;;;;5091809;28;20024;-34
2021/06/28 10:34:36;;;;;;;0.93;0.50;;;;;;;;;;5091423;28;20044;-38
2021/06/28 10:37:04;;;;;;;1.40;0.40;;;;;;;;;;5091972;28;20035;-35
2021/06/28 10:39:32;;;;;;;0.55;0.40;;;;;;;;;;5090781;28;20036;-36
2021/06/28 10:42:02;;;;;;;0.75;0.40;;;;;;;;;;5091761;28;20028;-36
2021/06/28 10:44:46;;;;;;;0.90;0.50;;;;;;;;;;5091293;28;20498;-37
2021/06/28 10:47:13;;;;;;;1.15;0.45;;;;;;;;;;5091942;28;20016;-37
2021/06/28 10:49:45;;;;;;;0.75;0.30;;;;;;;;;;5091412;28;20087;-37
2021/06/28 10:52:15;;;;;;;0.93;0.40;;;;;;;;;;5091810;28;20016;-35
2021/06/28 10:54:42;;;;;;;0.50;0.30;;;;;;;;;;5091333;28;20030;-37
2021/06/28 10:57:11;;;;;;;0.47;0.35;;;;;;;;;;5084207;28;20017;-36
2021/06/28 10:59:46;;;;;;;1.98;0.43;;;;;;;;;;5070764;28;20041;-37
2021/06/28 11:02:14;;;;;;;1.15;0.57;;;;;;;;;;5071422;28;20024;-36
2021/06/28 11:04:42;;;;;;;0.35;0.22;;;;;;;;;;5074828;28;20025;-37
2021/06/28 11:07:09;;;;;;;1.45;0.60;;;;;;;;;;5075467;28;20063;-34
2021/06/28 11:09:48;;;;;;;1.30;0.20;;;;;;;;;;5075052;28;20488;-33
2021/06/28 11:12:22;;;;;;;0.63;0.30;;;;;;;;;;5075557;28;20024;-34
2021/06/28 11:14:53;;;;;;;0.88;0.40;;;;;;;;;;5075007;28;20638;-31
2021/06/28 11:17:22;;;;;;;0.82;0.50;;;;;;;;;;5075585;28;20037;-38
2021/06/28 11:20:06;;;;;;;0.88;0.50;;;;;;;;;;5074707;28;20115;-36
2021/06/28 11:22:44;;;;;;;0.68;0.30;;;;;;;;;;5075210;28;20029;-36
2021/06/28 11:25:11;;;;;;;0.93;0.30;;;;;;;;;;5074767;28;20036;-35
2021/06/28 11:27:39;;;;;;;0.80;0.30;;;;;;;;;;5075247;28;20062;-37
2021/06/28 11:30:18;;;;;;;0.77;0.30;;;;;;;;;;5074771;28;20024;-33
2021/06/28 11:33:05;;;;;;;1.30;0.60;;;;;;;;;;5075032;28;20115;-37
2021/06/28 11:35:38;;;;;;;0.75;0.40;;;;;;;;;;5074632;28;20115;-35
2021/06/28 11:38:13;;;;;;;0.88;0.45;;;;;;;;;;5074932;28;20526;-34
2021/06/28 11:40:41;;;;;;;0.40;0.30;;;;;;;;;;5074207;28;20107;-35
2021/06/28 11:43:08;;;;;;;1.02;0.50;;;;;;;;;;5075057;28;20109;-35
2021/06/28 11:45:51;;;;;;;1.83;0.57;;;;;;;;;;5074793;28;20082;-35
2021/06/28 11:48:34;;;;;;;2.38;0.43;;;;;;;;;;5074669;28;20449;-36
2021/06/28 11:51:02;;;;;;;1.13;0.50;;;;;;;;;;5073132;28;20044;-37
2021/06/28 11:53:29;;;;;;;1.17;0.40;;;;;;;;;;5074471;28;20078;-37
2021/06/28 11:55:56;;;;;;;0.60;0.30;;;;;;;;;;5074547;28;20032;-36
2021/06/28 11:58:25;;;;;;;0.77;0.40;;;;;;;;;;5073750;28;20099;-37
2021/06/28 12:01:08;;;;;;;1.00;0.50;;;;;;;;;;5074015;28;20036;-36
2021/06/28 12:03:39;;;;;;;1.48;0.50;;;;;;;;;;5073410;28;20120;-37
2021/06/28 12:06:10;;;;;;;2.22;0.40;;;;;;;;;;5071240;28;20023;-35
2021/06/28 12:08:37;;;;;;;3.60;0.45;;;;;;;;;;5069247;28;20513;-42
2021/06/28 12:11:04;;;;;;;2.40;0.50;;;;;;;;;;5071611;28;20028;-34
2021/06/28 12:13:32;;;;;;;5.47;0.50;;;;;;;;;;5067787;28;20020;-43
2021/06/28 12:16:13;;;;;;;1.77;0.47;;;;;;;;;;5072225;28;20024;-40
2021/06/28 12:18:40;;;;;;;1.67;0.50;;;;;;;;;;5068430;28;20024;-37
2021/06/28 12:21:07;;;;;;;1.77;0.85;;;;;;;;;;5071611;28;20025;-43
2021/06/28 12:23:34;;;;;;;1.48;0.40;;;;;;;;;;5071629;28;20052;-40
2021/06/28 12:26:14;;;;;;;4.90;0.57;;;;;;;;;;5073097;28;20028;-33
2021/06/28 12:28:41;;;;;;;2.28;0.50;;;;;;;;;;5071430;28;20032;-45
2021/06/28 12:31:16;;;;;;;1.58;0.47;;;;;;;;;;5069435;28;20104;-34
2021/06/28 12:33:43;;;;;;;2.85;0.47;;;;;;;;;;5070221;28;20052;-45
2021/06/28 12:36:11;;;;;;;0.80;0.60;;;;;;;;;;5073855;28;20491;-36
2021/06/28 12:38:38;;;;;;;0.90;0.40;;;;;;;;;;5071856;28;20051;-34
2021/06/28 12:41:05;;;;;;;0.55;0.30;;;;;;;;;;5062782;28;20434;-47
2021/06/28 12:43:32;;;;;;;2.08;0.60;;;;;;;;;;5071149;28;20510;-45
2021/06/28 12:45:59;;;;;;;2.25;0.35;;;;;;;;;;5053340;28;20052;-34
2021/06/28 12:48:30;;;;;;;3.63;0.40;;;;;;;;;;5055202;28;20070;-51
2021/06/28 12:50:57;;;;;;;6.07;0.73;;;;;;;;;;5072781;28;20059;-43
2021/06/28 12:53:25;;;;;;;5.65;0.40;;;;;;;;;;5071463;28;20031;-37
2021/06/28 12:56:03;;;;;;;1.25;0.50;;;;;;;;;;5071086;28;20025;-50
2021/06/28 12:58:41;;;;;;;3.53;0.50;;;;;;;;;;5085133;28;20050;-41
2021/06/28 13:01:08;;;;;;;4.70;0.50;;;;;;;;;;5092836;28;20042;-36
2021/06/28 13:03:35;;;;;;;2.83;0.52;;;;;;;;;;5092989;28;20487;-39
2021/06/28 13:06:12;;;;;;;1.50;0.60;;;;;;;;;;5089819;28;20023;-37
2021/06/28 13:08:39;;;;;;;2.92;0.40;;;;;;;;;;5092323;28;20115;-45
2021/06/28 13:11:07;;;;;;;11.32;1.63;;;;;;;;;;5071649;28;20021;-38
2021/06/28 13:13:49;;;;;;;1.75;0.40;;;;;;;;;;5072217;28;20107;-39
2021/06/28 13:19:00;;;;;;;3.65;0.55;;;;;;;;;;5069456;28;20029;-37
2021/06/28 13:21:29;;;;;;;3.75;0.70;;;;;;;;;;5071943;28;20036;-33
2021/06/28 13:23:56;;;;;;;1.25;0.60;;;;;;;;;;5071965;28;20036;-37
2021/06/28 13:26:28;;;;;;;3.65;0.65;;;;;;;;;;5070934;28;20024;-38
2021/06/28 13:28:57;;;;;;;2.25;0.60;;;;;;;;;;5070704;28;20052;-34
2021/06/28 13:31:25;;;;;;;3.05;0.45;;;;;;;;;;5069445;28;20036;-34
2021/06/28 13:34:02;;;;;;;3.85;0.82;;;;;;;;;;5071449;28;20047;-44
2021/06/28 13:36:29;;;;;;;2.15;0.85;;;;;;;;;;5071270;28;20502;-35
2021/06/28 13:38:56;;;;;;;3.60;0.80;;;;;;;;;;5052003;28;20104;-37
2021/06/28 13:41:23;;;;;;;1.95;0.82;;;;;;;;;;5049959;28;20033;-35
2021/06/28 13:44:08;;;;;;;5.45;0.93;;;;;;;;;;5050788;28;20033;-37
2021/06/28 13:46:35;;;;;;;6.30;0.90;;;;;;;;;;5051723;28;20060;-46
2021/06/28 13:49:25;;;;;;;2.28;0.77;;;;;;;;;;5054946;28;20040;-38
2021/06/28 13:51:56;;;;;;;1.73;0.80;;;;;;;;;;5071742;28;20104;-33
2021/06/28 13:54:24;;;;;;;1.73;0.68;;;;;;;;;;5068770;28;20038;-34
2021/06/28 13:56:51;;;;;;;4.13;1.23;;;;;;;;;;5072016;28;20035;-34
2021/06/28 13:59:18;;;;;;;6.93;0.93;;;;;;;;;;5070525;28;20081;-37
2021/06/28 14:01:45;;;;;;;2.40;1.00;;;;;;;;;;5071049;28;20059;-35
2021/06/28 14:04:12;;;;;;;6.20;1.00;;;;;;;;;;5071193;28;20067;-32
2021/06/28 14:06:39;;;;;;;5.13;0.80;;;;;;;;;;5068879;28;20027;-43
2021/06/28 14:09:07;;;;;;;3.40;0.85;;;;;;;;;;5070909;28;20082;-35
2021/06/28 14:11:34;;;;;;;3.95;0.88;;;;;;;;;;5071480;28;20210;-34
2021/06/28 14:14:01;;;;;;;4.57;0.85;;;;;;;;;;5071586;28;20027;-36
2021/06/28 14:16:28;;;;;;;5.60;0.90;;;;;;;;;;5071018;28;20131;-33
2021/06/28 14:18:55;;;;;;;3.42;0.73;;;;;;;;;;5069196;28;20024;-33
2021/06/28 14:21:22;;;;;;;6.05;0.70;;;;;;;;;;5070534;28;20103;-34
2021/06/28 14:23:50;;;;;;;2.90;0.80;;;;;;;;;;5069919;28;20025;-34
2021/06/28 14:26:17;;;;;;;6.25;0.98;;;;;;;;;;5071592;28;20427;-38
2021/06/28 14:28:44;;;;;;;4.10;0.80;;;;;;;;;;5070141;28;20021;-34
2021/06/28 14:31:11;;;;;;;4.18;0.90;;;;;;;;;;5069832;28;20063;-38
2021/06/28 14:33:38;;;;;;;3.83;0.90;;;;;;;;;;5070753;28;21213;-49
2021/06/28 14:36:05;;;;;;;2.25;0.85;;;;;;;;;;5070912;28;20032;-34
2021/06/28 14:38:32;;;;;;;2.90;0.60;;;;;;;;;;5071289;28;20483;-48
2021/06/28 14:41:00;;;;;;;4.47;0.85;;;;;;;;;;5069055;28;20447;-35
2021/06/28 14:43:27;;;;;;;3.47;0.75;;;;;;;;;;5070714;28;20546;-50
2021/06/28 14:45:54;;;;;;;2.05;0.75;;;;;;;;;;5075991;28;20150;-32
2021/06/28 14:48:21;;;;;;;12.15;0.93;;;;;;;;;;5070528;28;20024;-35
2021/06/28 14:50:48;;;;;;;3.95;0.70;;;;;;;;;;5070941;28;20013;-41
2021/06/28 14:53:15;;;;;;;2.85;0.63;;;;;;;;;;5069259;28;20036;-45
2021/06/28 14:55:44;;;;;;;2.22;0.60;;;;;;;;;;5069258;28;20041;-34